< < Back
Terminal Aerodrome Forecast


Current Version              Previous Versions:   1  2  3  4  5  6  7  8  9  

Terminal Aerodrome Forecast

849
FTUS42 KILM 281457 AAA
TAFFLO
TAF AMD
KFLO 281457Z 2815/2912 11005KT P6SM SCT020 SCT120
     FM282000 12007KT P6SM SCT035 SCT120
     FM290300 VRB03KT P6SM SCT120
      TEMPO 2909/2912 3SM BR=



Latest METAR

185
SAUS70 KWBC 290600 RRG
MTRFLO
METAR KFLO 290553Z AUTO 25003KT 10SM CLR 24/22 A2999 RMK AO2 SLP153
T02440217 10317 20244 55000


USA.gov is the U.S. government's official web portal to all federal, state and local government web resources and services.